Flight Track Log - Related Links

Times and Time Zones

All times are in EDT time to prevent confusion due to time zone crossing. See the UAL33 flight status page for this flight to view local times or setup timezone preferences in your user account.

Time Position Orientation Groundspeed Altitude Reporting Facility
EDT Latitude Longitude Course Direction KTS MPH feet Rate Location/Type
Thu 09:52:54 PM 41.9790 -87.9120 14° North  Level FlightAware ADS-B
Thu 09:56:30 PM 41.9800 -87.9130 323° Northwest 26 30 172 Level FlightAware ADS-B
Thu 09:57:00 PM 41.9820 -87.9150 323° Northwest 27 31 243 Level FlightAware ADS-B
Thu 09:57:19 PM 41.9780 -87.9140 169° South 29 33 258 Level FlightAware ADS-B
Thu 09:57:57 PM 41.9750 -87.9140 180° South 27 31 269 Level FlightAware ADS-B
Thu 10:00:00 PM 41.7564 -87.9468 200° South  Level FlightAware Approximate
Thu 10:01:00 PM 41.6535 -87.9716 187° South  Level FlightAware Approximate
Thu 10:02:00 PM 41.5494 -87.9901 189° South  Level FlightAware Approximate
Thu 10:03:00 PM 41.4454 -88.0109 189° South  Level FlightAware Approximate
Thu 10:04:00 PM 41.3432 -88.0394 197° South  Level FlightAware Approximate
Thu 10:05:08 PM 41.9960 -87.9480 304° West 154 177 2,100  Level FlightAware ADS-B
Thu 10:05:34 PM 41.9830 -87.9680 229° Southwest 182 209 3,200 2,571 Climbing FlightAware ADS-B
Thu 10:05:43 PM 41.9780 -87.9680 180° South 183 211 3,600 2,133 Climbing FlightAware ADS-B
Thu 10:06:19 PM 41.9420 -87.9620 173° South 242 278 4,800 1,219 Climbing FlightAware ADS-B
Thu 10:06:47 PM 41.9090 -87.9590 176° South 269 310 4,900 107 Climbing FlightAware ADS-B
Thu 10:07:15 PM 41.8740 -87.9550 175° South 267 307 4,900  Level FlightAware ADS-B
Thu 10:07:44 PM 41.8390 -87.9520 176° South 268 308 4,900 982 Level FlightAware ADS-B
Thu 10:08:10 PM 41.8070 -87.9490 176° South 271 312 5,800 3,000 Climbing FlightAware ADS-B
Thu 10:08:40 PM 41.7670 -87.9450 176° South 289 333 7,700 4,241 Climbing FlightAware ADS-B
Thu 10:09:08 PM 41.7290 -87.9420 177° South 296 341 9,900 4,545 Climbing FlightAware ADS-B
Thu 10:09:46 PM 41.6740 -87.9470 184° South 304 350 12,700 3,462 Climbing FlightAware ADS-B
Thu 10:10:26 PM 41.6230 -87.9630 193° South 335 386 14,400 2,965 Climbing FlightAware ADS-B
Thu 10:11:11 PM 41.5500 -87.9850 193° South 351 404 16,900 2,571 Climbing FlightAware ADS-B
Thu 10:11:57 PM 41.4680 -87.9870 181° South 374 430 18,300 2,442 Climbing FlightAware ADS-B
Thu 10:12:37 PM 41.3970 -87.9840 178° South 387 445 20,400 3,214 Climbing FlightAware ADS-B
Thu 10:13:21 PM 41.3180 -87.9790 177° South 394 453 22,800 3,079 Climbing FlightAware ADS-B
Thu 10:13:53 PM 41.2600 -87.9750 177° South 404 465 24,300 2,679 Climbing FlightAware ADS-B
Thu 10:14:17 PM 41.2160 -87.9880 193° South 398 458 25,300 2,531 Climbing FlightAware ADS-B
Thu 10:14:57 PM 41.1460 -88.0200 199° South 411 473 27,000 2,462 Climbing FlightAware ADS-B
Thu 10:15:35 PM 41.0780 -88.0530 200° South 418 481 28,500 2,357 Climbing FlightAware ADS-B
Thu 10:16:21 PM 40.9970 -88.1090 208° Southwest 427 491 30,300 2,233 Climbing FlightAware ADS-B
Thu 10:17:01 PM 40.9280 -88.1580 208° Southwest 434 499 31,700 2,000 Climbing FlightAware ADS-B
Thu 10:17:45 PM 40.8480 -88.2150 208° Southwest 446 513 33,100 1,714 Climbing FlightAware ADS-B
Thu 10:18:25 PM 40.7740 -88.2670 208° Southwest 458 527 34,100 1,571 Climbing FlightAware ADS-B
Thu 10:19:09 PM 40.6920 -88.3250 208° Southwest 465 535 35,300 1,643 Climbing FlightAware ADS-B
Thu 10:19:49 PM 40.6140 -88.3790 208° Southwest 468 539 36,400 1,857 Climbing FlightAware ADS-B
Thu 10:20:33 PM 40.5330 -88.4370 209° Southwest 460 529 37,900 1,765 Climbing FlightAware ADS-B
Thu 10:21:14 PM 40.4550 -88.4910 208° Southwest 460 529 38,900 1,395 Climbing FlightAware ADS-B
Thu 10:21:59 PM 40.3720 -88.5490 208° Southwest 457 526 39,900 805 Climbing FlightAware ADS-B
Thu 10:22:36 PM 40.3010 -88.5980 208° Southwest 456 525 40,000 72 Climbing FlightAware ADS-B
Thu 10:23:22 PM 40.2150 -88.6580 208° Southwest 455 524 40,000  Level FlightAware ADS-B
Thu 10:24:02 PM 40.1410 -88.7090 208° Southwest 457 526 40,000  Level FlightAware ADS-B
Thu 10:24:44 PM 40.0640 -88.7620 208° Southwest 458 527 40,000  Level FlightAware ADS-B
Thu 10:25:24 PM 39.9880 -88.8150 208° Southwest 458 527 40,000  Level FlightAware ADS-B
Thu 10:26:00 PM 39.9220 -88.8600 208° Southwest 458 527 40,000  Level FlightAware ADS-B
Thu 10:26:44 PM 39.8380 -88.9180 208° Southwest 460 529 40,000  Level FlightAware ADS-B
Thu 10:27:24 PM 39.7650 -88.9680 208° Southwest 459 528 40,000  Level FlightAware ADS-B
Thu 10:28:04 PM 39.6880 -89.0200 207° Southwest 461 531 40,000  Level FlightAware ADS-B
Thu 10:28:48 PM 39.6030 -89.0780 208° Southwest 460 529 40,000  Level FlightAware ADS-B
Thu 10:29:32 PM 39.5250 -89.1310 208° Southwest 460 529 40,000  Level FlightAware ADS-B
Thu 10:30:14 PM 39.4450 -89.1850 208° Southwest 462 532 40,000  Level FlightAware ADS-B
Thu 10:30:50 PM 39.3720 -89.2340 207° Southwest 464 534 40,000  Level FlightAware ADS-B
Thu 10:31:30 PM 39.3000 -89.2820 207° Southwest 465 535 40,000  Level FlightAware ADS-B
Thu 10:32:15 PM 39.2170 -89.3380 208° Southwest 466 536 40,000  Level FlightAware ADS-B
Thu 10:32:46 PM 39.1510 -89.3830 208° Southwest 466 536 40,000  Level FlightAware ADS-B
Thu 10:33:28 PM 39.0700 -89.4360 207° Southwest 466 536 40,000  Level FlightAware ADS-B
Thu 10:34:06 PM 39.0020 -89.4820 208° Southwest 466 536 40,000  Level FlightAware ADS-B
Thu 10:34:56 PM 38.9030 -89.5480 207° Southwest 467 537 40,000  Level FlightAware ADS-B
Thu 10:35:36 PM 38.8250 -89.6000 207° Southwest 468 539 40,000  Level FlightAware ADS-B
Thu 10:36:12 PM 38.7580 -89.6440 207° Southwest 468 539 40,000  Level FlightAware ADS-B
Thu 10:36:56 PM 38.6710 -89.7020 208° Southwest 469 540 40,000  Level FlightAware ADS-B
Thu 10:37:35 PM 38.5960 -89.7500 207° Southwest 469 540 40,000  Level FlightAware ADS-B
Thu 10:38:16 PM 38.5170 -89.8020 207° Southwest 470 541 40,000  Level FlightAware ADS-B
Thu 10:38:58 PM 38.4370 -89.8550 207° Southwest 470 541 40,000  Level FlightAware ADS-B
Thu 10:39:50 PM 38.3430 -89.9160 207° Southwest 469 540 40,000  Level FlightAware ADS-B
Thu 10:40:36 PM 38.2470 -89.9790 207° Southwest 466 536 40,000  Level FlightAware ADS-B
Thu 10:41:16 PM 38.1770 -90.0240 207° Southwest 466 536 40,000  Level FlightAware ADS-B
Thu 10:42:00 PM 38.0860 -90.0830 207° Southwest 467 537 40,000  Level FlightAware ADS-B
Thu 10:42:36 PM 38.0160 -90.1290 207° Southwest 467 537 40,000  Level FlightAware ADS-B
Thu 10:43:17 PM 37.9380 -90.1780 206° Southwest 466 536 40,000  Level FlightAware ADS-B
Thu 10:43:59 PM 37.8630 -90.2270 207° Southwest 466 536 40,000  Level FlightAware ADS-B
Thu 10:44:36 PM 37.8020 -90.2660 207° Southwest 466 536 40,000  Level FlightAware ADS-B
Thu 10:45:12 PM 37.7440 -90.3040 207° Southwest 466 536 40,000  Level FlightAware ADS-B
Thu 10:46:01 PM 37.6640 -90.3560 207° Southwest 466 536 40,000  Level FlightAware ADS-B
Thu 10:46:50 PM 37.5840 -90.4070 207° Southwest 466 536 40,000  Level FlightAware ADS-B
Thu 10:47:26 PM 37.5250 -90.4450 207° Southwest 466 536 40,000  Level FlightAware ADS-B
Thu 10:48:14 PM 37.4460 -90.4950 207° Southwest 466 536 40,000  Level FlightAware ADS-B
Thu 10:48:52 PM 37.2940 -90.5900 206° Southwest 464 534 40,000  Level FlightAware ADS-B
Thu 10:49:36 PM 37.2090 -90.6430 206° Southwest 462 532 40,000  Level FlightAware ADS-B
Thu 10:50:16 PM 37.1330 -90.6910 207° Southwest 462 532 40,000  Level FlightAware ADS-B
Thu 10:51:01 PM 37.0470 -90.7450 207° Southwest 461 531 40,000  Level FlightAware ADS-B
Thu 10:51:33 PM 36.9840 -90.7840 206° Southwest 463 533 40,000  Level FlightAware ADS-B
Thu 10:52:16 PM 36.9050 -90.8330 206° Southwest 464 534 40,000  Level FlightAware ADS-B
Thu 10:53:01 PM 36.8160 -90.8890 207° Southwest 464 534 40,000  Level FlightAware ADS-B
Thu 10:53:41 PM 36.7380 -90.9380 207° Southwest 464 534 40,000  Level FlightAware ADS-B
Thu 10:54:21 PM 36.6640 -90.9830 206° Southwest 464 534 40,000  Level FlightAware ADS-B
Thu 10:54:57 PM 36.5950 -91.0270 207° Southwest 465 535 40,000  Level FlightAware ADS-B
Thu 10:55:47 PM 36.4970 -91.0870 206° Southwest 465 535 40,000  Level FlightAware ADS-B
Thu 10:56:21 PM 36.4310 -91.1270 206° Southwest 462 532 40,000  Level FlightAware ADS-B
Thu 10:57:05 PM 36.3470 -91.1790 207° Southwest 464 534 40,000  Level FlightAware ADS-B
Thu 10:57:45 PM 36.2660 -91.2190 202° Southwest 471 542 40,000  Level FlightAware ADS-B
Thu 10:58:25 PM 36.1830 -91.2490 196° South 471 542 40,000  Level FlightAware ADS-B
Thu 10:59:03 PM 36.1050 -91.2770 196° South 473 544 40,000  Level FlightAware ADS-B
Thu 10:59:53 PM 35.9970 -91.3150 196° South 472 543 40,000  Level FlightAware ADS-B
Thu 11:00:33 PM 35.9130 -91.3450 196° South 472 543 40,000  Level FlightAware ADS-B
Thu 11:01:15 PM 35.8250 -91.3760 196° South 471 542 40,000  Level FlightAware ADS-B
Thu 11:01:59 PM 35.7330 -91.4080 196° South 469 540 40,000  Level FlightAware ADS-B
Thu 11:03:07 PM 35.5930 -91.4580 196° South 464 534 40,000  Level FlightAware ADS-B
Thu 11:03:43 PM 35.5190 -91.4840 196° South 464 534 40,000  Level FlightAware ADS-B
Thu 11:04:33 PM 35.4320 -91.5150 196° South 464 534 40,000  Level FlightAware ADS-B
Thu 11:05:15 PM 35.3260 -91.5520 196° South 464 534 40,000  Level FlightAware ADS-B
Thu 11:05:57 PM 35.2500 -91.5770 195° South 464 534 40,000  Level FlightAware ADS-B
Thu 11:06:45 PM 35.1660 -91.6050 195° South 464 534 40,000  Level FlightAware ADS-B
Thu 11:07:21 PM 35.1020 -91.6260 195° South 464 534 40,000  Level FlightAware ADS-B
Thu 11:07:58 PM 35.0370 -91.6470 195° South 464 534 40,000  Level FlightAware ADS-B
Thu 11:08:46 PM 34.9520 -91.6750 195° South 464 534 40,000  Level FlightAware ADS-B
Thu 11:09:23 PM 34.8170 -91.7290 198° South 463 533 40,000  Level FlightAware ADS-B
Thu 11:10:10 PM 34.7270 -91.7590 195° South 462 532 40,000  Level FlightAware ADS-B
Thu 11:10:53 PM 34.6280 -91.7930 196° South 463 533 40,000  Level FlightAware ADS-B
Thu 11:11:26 PM 34.5760 -91.8110 196° South 463 533 40,000  Level FlightAware ADS-B
Thu 11:12:16 PM 34.4880 -91.8390 195° South 463 533 40,000  Level FlightAware ADS-B
Thu 11:12:52 PM 34.4240 -91.8600 195° South 463 533 40,000  Level FlightAware ADS-B
Thu 11:13:28 PM 34.3610 -91.8800 195° South 463 533 40,000  Level FlightAware ADS-B
Thu 11:14:17 PM 34.2750 -91.9080 195° South 463 533 40,000  Level FlightAware ADS-B
Thu 11:14:42 PM 34.2310 -91.9230 196° South 463 533 40,000  Level FlightAware ADS-B
Thu 11:15:30 PM 34.1460 -91.9500 195° South 463 533 40,000  Level FlightAware ADS-B
Thu 11:16:06 PM 34.0830 -91.9700 195° South 463 533 40,000  Level FlightAware ADS-B
Thu 11:16:54 PM 33.9990 -91.9980 195° South 463 533 40,000  Level FlightAware ADS-B
Thu 11:17:31 PM 33.9340 -92.0190 195° South 463 533 40,000  Level FlightAware ADS-B
Thu 11:18:19 PM 33.8490 -92.0460 195° South 463 533 40,000  Level FlightAware ADS-B
Thu 11:18:56 PM 33.7840 -92.0670 195° South 463 533 40,000  Level FlightAware ADS-B
Thu 11:19:32 PM 33.7210 -92.0870 195° South 463 533 40,000  Level FlightAware ADS-B
Thu 11:20:19 PM 33.6380 -92.1140 195° South 463 533 40,000  Level FlightAware ADS-B
Thu 11:20:55 PM 33.5750 -92.1340 195° South 463 533 40,000  Level FlightAware ADS-B
Thu 11:22:14 PM 33.2392 -92.2603 195° South 466 536 40,000  Level Fort Worth Center
Thu 11:23:14 PM 33.1136 -92.3022 196° South 471 542 40,000  Level Fort Worth Center
Thu 11:28:58 PM 32.3879 -92.5427 196° South 468 539 40,000  Level FlightAware ADS-B
Thu 11:31:46 PM 32.0873 -92.7635 212° Southwest 458 527 40,000 -186 Level FlightAware ADS-B
Thu 11:32:44 PM 31.9873 -92.8501 216° Southwest 458 527 39,300 -1,020 Descending FlightAware ADS-B
Thu 11:33:26 PM 31.9168 -92.9110 216° Southwest 460 529 38,300 -1,049 Descending FlightAware ADS-B
Thu 11:34:27 PM 31.8136 -93.0000 216° Southwest 456 525 37,500 -875 Descending FlightAware ADS-B
Thu 11:35:50 PM 31.6757 -93.1187 216° Southwest 447 514 36,200 -1,255 Descending FlightAware ADS-B
Thu 11:39:57 PM 31.2861 -93.4511 216° Southwest 399 459 30,600 -1,362 Descending FlightAware ADS-B
Thu 11:40:32 PM 31.2340 -93.4954 216° Southwest 394 453 29,800 -1,385 Descending FlightAware ADS-B
Thu 11:41:02 PM 31.1900 -93.5327 216° Southwest 386 444 29,100 -1,371 Descending FlightAware ADS-B
Thu 11:41:42 PM 31.1330 -93.5809 216° Southwest 384 442 28,200 -1,389 Descending FlightAware ADS-B
Thu 11:42:37 PM 31.0545 -93.6474 216° Southwest 382 440 26,900 -1,385 Descending FlightAware ADS-B
Thu 11:43:00 PM 31.0230 -93.6740 216° Southwest 373 429 26,400 -1,400 Descending FlightAware ADS-B
Thu 11:43:07 PM 31.0133 -93.6830 218° Southwest 371 427 26,200 -1,286 Descending FlightAware ADS-B
Thu 11:43:14 PM 31.0043 -93.6928 223° Southwest 368 423 26,100 -1,412 Descending FlightAware ADS-B
Thu 11:43:24 PM 30.9931 -93.7077 229° Southwest 367 422 25,800 -1,500 Descending FlightAware ADS-B
Thu 11:43:54 PM 30.9631 -93.7553 234° Southwest 362 417 25,100 -1,424 Descending FlightAware ADS-B
Thu 11:44:23 PM 30.9358 -93.8002 235° Southwest 358 412 24,400 -1,220 Descending FlightAware ADS-B
Thu 11:44:53 PM 30.9094 -93.8489 238° Southwest 356 410 23,900 -900 Descending FlightAware ADS-B
Thu 11:45:23 PM 30.8830 -93.8977 238° Southwest 355 409 23,500 -706 Descending FlightAware ADS-B
Thu 11:46:01 PM 30.8491 -93.9595 237° Southwest 355 409 23,100 -609 Descending FlightAware ADS-B
Thu 11:46:32 PM 30.8221 -94.0082 237° Southwest 353 406 22,800 -581 Descending FlightAware ADS-B
Thu 11:47:03 PM 30.7945 -94.0576 237° Southwest 351 404 22,500 -590 Descending FlightAware ADS-B
Thu 11:47:33 PM 30.7678 -94.1057 237° Southwest 350 403 22,200 -600 Descending FlightAware ADS-B
Thu 11:48:03 PM 30.7412 -94.1533 237° Southwest 350 403 21,900 -692 Descending FlightAware ADS-B
Thu 11:48:51 PM 30.6993 -94.2275 236° Southwest 348 400 21,300 -738 Descending FlightAware ADS-B
Thu 11:50:13 PM 30.6138 -94.3414 228° Southwest 346 398 20,300 -2,028 Descending FlightAware ADS-B
Thu 11:51:13 PM 30.5435 -94.4323 228° Southwest 404 465 16,500 -3,800 Descending FlightAware ADS-B
Thu 11:51:43 PM 30.5050 -94.4814 228° Southwest 418 481 14,600 -2,203 Descending FlightAware ADS-B
Thu 11:54:10 PM 30.3247 -94.7134 228° Southwest 337 388 10,000 -1,549 Descending FlightAware ADS-B
Thu 11:54:45 PM 30.2910 -94.7564 228° Southwest 307 353 9,900 -120 Descending FlightAware ADS-B
Thu 11:55:00 PM 30.2767 -94.7748 228° Southwest 293 337 9,900 -1,319 Level FlightAware ADS-B
Thu 11:56:16 PM 30.2086 -94.8621 228° Southwest 281 323 7,900 -1,761 Descending FlightAware ADS-B
Thu 11:56:32 PM 30.1952 -94.8791 228° Southwest 283 326 7,200 -1,761 Descending FlightAware ADS-B
Thu 11:58:05 PM 30.1147 -94.9814 228° Southwest 262 302 4,700 -1,472 Descending FlightAware ADS-B
Thu 11:58:18 PM 30.1037 -94.9953 228° Southwest 256 295 4,600 -818 Descending FlightAware ADS-B
Thu 11:58:49 PM 30.0797 -95.0259 228° Southwest 253 291 4,100 -1,043 Descending FlightAware ADS-B
Thu 11:59:04 PM 30.0680 -95.0415 231° Southwest 254 292 3,800 -1,263 Descending FlightAware ADS-B
Thu 11:59:08 PM 30.0653 -95.0458 234° Southwest 256 295 3,700 -2,143 Descending FlightAware ADS-B
Thu 11:59:18 PM 30.0587 -95.0579 240° Southwest 264 304 3,300 -1,846 Descending FlightAware ADS-B
Thu 11:59:34 PM 30.0501 -95.0785 245° Southwest 270 311 2,900 -1,355 Descending FlightAware ADS-B
Thu 11:59:49 PM 30.0418 -95.0982 244° Southwest 269 310 2,600 -1,125 Descending FlightAware ADS-B
Fri 12:00:06 AM 30.0328 -95.1198 244° Southwest 267 307 2,300 -840 Descending FlightAware ADS-B
Fri 12:00:39 AM 30.0157 -95.1608 244° Southwest 263 303 1,900 -369 Descending FlightAware ADS-B
Fri 12:01:11 AM 30.0012 -95.1951 244° Southwest 214 246 1,900  Level FlightAware ADS-B
Fri 12:01:22 AM 29.9964 -95.2067 244° Southwest 198 228 1,900  Level FlightAware ADS-B
Fri 12:01:27 AM 29.9949 -95.2111 249° West 192 221 1,900  Level FlightAware ADS-B
Fri 12:01:34 AM 29.9937 -95.2176 258° West 187 215 1,900 -800 Level FlightAware ADS-B
Fri 12:01:42 AM 29.9933 -95.2262 267° West 181 208 1,700 -1,059 Descending FlightAware ADS-B
Fri 12:01:51 AM 29.9934 -95.2343 271° West 169 194 1,600 -720 Descending FlightAware ADS-B
Fri 12:02:07 AM 29.9934 -95.2480 270° West 157 181 1,400 -968 Descending FlightAware ADS-B
Fri 12:02:22 AM 29.9934 -95.2604 270° West 144 166 1,100 -800 Descending FlightAware ADS-B
Fri 12:02:37 AM 29.9934 -95.2714 270° West 135 155 1,000 -686 Descending FlightAware ADS-B
Fri 12:02:57 AM 29.9934 -95.2854 270° West 136 157 700 -750 Descending FlightAware ADS-B
Fri 12:03:17 AM 29.9935 -95.2998 270° West 136 157 500 -686 Descending FlightAware ADS-B
Fri 12:03:32 AM 29.9935 -95.3107 270° West 137 158 300 -750 Descending FlightAware ADS-B
Fri 12:03:49 AM 29.9934 -95.3231 269° West 137 158 100 -706 Descending FlightAware ADS-B

Login

Don't have an account? Register now (free) for customized features, flight alerts, and more!